createdAt,value
2022-08-23T00:00:13.499Z,991.26
2022-08-23T00:01:11.279Z,991.20
2022-08-23T00:02:16.721Z,991.29
2022-08-23T00:03:12.365Z,991.29
2022-08-23T00:04:11.620Z,991.23
2022-08-23T00:05:11.259Z,991.24
2022-08-23T00:06:11.227Z,991.24
2022-08-23T00:07:11.209Z,991.21
2022-08-23T00:08:11.216Z,991.20
2022-08-23T00:09:11.208Z,991.20
2022-08-23T00:10:11.210Z,991.25
2022-08-23T00:11:11.227Z,991.31
2022-08-23T00:12:11.169Z,991.25
2022-08-23T00:13:11.227Z,991.24
2022-08-23T00:14:11.150Z,991.22
2022-08-23T00:15:14.389Z,991.20
2022-08-23T00:16:11.142Z,991.19
2022-08-23T00:17:11.120Z,991.16
2022-08-23T00:18:12.127Z,991.18
2022-08-23T00:19:11.106Z,991.21
2022-08-23T00:20:11.099Z,991.20
2022-08-23T00:21:11.170Z,991.21
2022-08-23T00:22:11.081Z,991.24
2022-08-23T00:23:11.056Z,991.22
2022-08-23T00:24:11.048Z,991.17
2022-08-23T00:25:11.110Z,991.17
2022-08-23T00:26:11.126Z,991.15
2022-08-23T00:27:11.020Z,991.14
2022-08-23T00:28:12.526Z,991.14
2022-08-23T00:29:10.991Z,991.13
2022-08-23T00:30:11.023Z,991.16
2022-08-23T00:31:11.327Z,991.15
2022-08-23T00:32:10.951Z,991.11
2022-08-23T00:33:10.953Z,991.14
2022-08-23T00:34:10.960Z,991.12
2022-08-23T00:35:10.910Z,991.10
2022-08-23T00:36:10.933Z,991.13
2022-08-23T00:37:10.973Z,991.10
2022-08-23T00:38:33.827Z,991.11
2022-08-23T00:39:11.881Z,991.13
2022-08-23T00:40:10.989Z,991.11
2022-08-23T00:41:10.892Z,991.08
2022-08-23T00:42:10.863Z,991.10
2022-08-23T00:43:10.884Z,991.05
2022-08-23T00:44:10.853Z,991.05
2022-08-23T00:45:10.843Z,991.06
2022-08-23T00:46:11.352Z,991.09
2022-08-23T00:47:10.811Z,991.00
2022-08-23T00:48:10.836Z,991.05
2022-08-23T00:49:10.811Z,991.00
2022-08-23T00:50:19.221Z,991.03
2022-08-23T00:51:11.780Z,991.03
2022-08-23T00:52:10.751Z,991.03
2022-08-23T00:53:10.836Z,991.10
2022-08-23T00:54:10.733Z,991.16
2022-08-23T00:55:10.724Z,991.18
2022-08-23T00:56:10.785Z,991.17
2022-08-23T00:57:10.844Z,991.17
2022-08-23T00:58:10.699Z,991.20
2022-08-23T00:59:10.705Z,991.15
2022-08-23T01:00:10.692Z,991.14
2022-08-23T01:01:10.654Z,991.19
2022-08-23T01:02:10.873Z,991.13
2022-08-23T01:03:10.657Z,991.13
2022-08-23T01:04:10.633Z,991.14
2022-08-23T01:05:10.643Z,991.18
2022-08-23T01:06:10.603Z,991.11
2022-08-23T01:07:10.673Z,991.06
2022-08-23T01:08:10.611Z,991.14
2022-08-23T01:09:10.584Z,991.11
2022-08-23T01:10:10.573Z,991.15
2022-08-23T01:11:10.558Z,991.13
2022-08-23T01:12:10.557Z,991.15
2022-08-23T01:13:10.845Z,991.15
2022-08-23T01:14:10.526Z,991.12
2022-08-23T01:15:10.525Z,991.20
2022-08-23T01:16:10.518Z,991.15
2022-08-23T01:17:10.497Z,991.22
2022-08-23T01:18:10.525Z,991.14
2022-08-23T01:19:10.474Z,991.12
2022-08-23T01:20:10.467Z,991.20
2022-08-23T01:21:10.748Z,991.16
2022-08-23T01:22:10.477Z,991.13
2022-08-23T01:23:10.796Z,991.16
2022-08-23T01:24:10.468Z,991.18
2022-08-23T01:25:11.428Z,991.17
2022-08-23T01:26:15.137Z,991.16
2022-08-23T01:27:12.279Z,991.22
2022-08-23T01:28:10.385Z,991.16
2022-08-23T01:29:11.357Z,991.18
2022-08-23T01:30:10.366Z,991.17
2022-08-23T01:31:10.375Z,991.17
2022-08-23T01:32:10.345Z,991.18
2022-08-23T01:33:10.335Z,991.20
2022-08-23T01:34:10.388Z,991.15
2022-08-23T01:35:10.408Z,991.21
2022-08-23T01:36:10.309Z,991.21
2022-08-23T01:37:10.297Z,991.20
2022-08-23T01:38:10.278Z,991.19
2022-08-23T01:39:10.296Z,991.18
2022-08-23T01:40:10.410Z,991.13
2022-08-23T01:41:10.270Z,991.15
2022-08-23T01:42:10.251Z,991.11
2022-08-23T01:43:10.247Z,991.19
2022-08-23T01:44:10.260Z,991.17
2022-08-23T01:45:10.234Z,991.20
2022-08-23T01:46:10.266Z,991.21
2022-08-23T01:47:10.202Z,991.23
2022-08-23T01:48:10.185Z,991.23
2022-08-23T01:49:10.166Z,991.25
2022-08-23T01:50:10.168Z,991.22
2022-08-23T01:51:10.339Z,991.22
2022-08-23T01:52:10.150Z,991.24
2022-08-23T01:53:10.182Z,991.26
2022-08-23T01:54:10.119Z,991.17
2022-08-23T01:55:10.319Z,991.20
2022-08-23T01:56:11.369Z,991.19
2022-08-23T01:57:10.143Z,991.21
2022-08-23T01:58:10.090Z,991.20
2022-08-23T01:59:10.078Z,991.20
2022-08-23T02:00:10.070Z,991.19
2022-08-23T02:01:10.059Z,991.22
2022-08-23T02:02:10.056Z,991.20
2022-08-23T02:03:10.043Z,991.18
2022-08-23T02:04:10.026Z,991.22
2022-08-23T02:05:10.659Z,991.21
2022-08-23T02:06:10.043Z,991.20
2022-08-23T02:07:10.082Z,991.21
2022-08-23T02:08:09.982Z,991.23
2022-08-23T02:09:17.393Z,991.21
2022-08-23T02:10:10.972Z,991.22
2022-08-23T02:11:10.001Z,991.24
2022-08-23T02:12:09.993Z,991.21
2022-08-23T02:13:09.980Z,991.27
2022-08-23T02:14:09.911Z,991.28
2022-08-23T02:15:09.910Z,991.27
2022-08-23T02:16:09.910Z,991.25
2022-08-23T02:17:10.902Z,991.25
2022-08-23T02:18:09.942Z,991.27
2022-08-23T02:19:09.865Z,991.25
2022-08-23T02:20:09.851Z,991.27
2022-08-23T02:21:09.867Z,991.25
2022-08-23T02:22:10.805Z,991.27
2022-08-23T02:23:10.817Z,991.25
2022-08-23T02:24:09.833Z,991.17
2022-08-23T02:25:09.823Z,991.19
2022-08-23T02:26:14.581Z,991.17
2022-08-23T02:27:10.806Z,991.17
2022-08-23T02:28:09.792Z,991.17
2022-08-23T02:29:09.764Z,991.18
2022-08-23T02:30:09.773Z,991.16
2022-08-23T02:31:09.755Z,991.18
2022-08-23T02:32:09.918Z,991.18
2022-08-23T02:33:09.739Z,991.22
2022-08-23T02:34:09.816Z,991.19
2022-08-23T02:35:09.723Z,991.18
2022-08-23T02:36:09.755Z,991.21
2022-08-23T02:37:09.687Z,991.17
2022-08-23T02:38:09.684Z,991.21
2022-08-23T02:39:09.733Z,991.20
2022-08-23T02:40:09.713Z,991.30
2022-08-23T02:41:09.662Z,991.27
2022-08-23T02:42:11.882Z,991.24
2022-08-23T02:43:09.624Z,991.30
2022-08-23T02:44:09.864Z,991.25
2022-08-23T02:45:09.646Z,991.25
2022-08-23T02:46:09.609Z,991.26
2022-08-23T02:47:09.596Z,991.28
2022-08-23T02:48:09.587Z,991.31
2022-08-23T02:49:09.570Z,991.31
2022-08-23T02:50:09.561Z,991.33
2022-08-23T02:51:09.559Z,991.33
2022-08-23T02:52:09.550Z,991.34
2022-08-23T02:53:09.867Z,991.34
2022-08-23T02:54:09.526Z,991.28
2022-08-23T02:55:09.527Z,991.35
2022-08-23T02:56:17.014Z,991.30
2022-08-23T02:57:10.476Z,991.34
2022-08-23T02:58:09.476Z,991.33
2022-08-23T02:59:09.458Z,991.36
2022-08-23T03:00:09.904Z,991.34
2022-08-23T03:01:09.446Z,991.37
2022-08-23T03:02:09.499Z,991.36
2022-08-23T03:03:09.418Z,991.32
2022-08-23T03:04:09.429Z,991.35
2022-08-23T03:05:09.430Z,991.32
2022-08-23T03:07:05.480Z,991.35
2022-08-23T03:08:05.469Z,991.32
2022-08-23T03:09:05.469Z,991.37
2022-08-23T03:10:05.439Z,991.40
2022-08-23T03:11:09.780Z,991.34
2022-08-23T03:12:05.438Z,991.37
2022-08-23T03:13:07.168Z,991.36
2022-08-23T03:14:05.409Z,991.39
2022-08-23T03:15:05.728Z,991.43
2022-08-23T03:16:05.450Z,991.44
2022-08-23T03:17:05.382Z,991.45
2022-08-23T03:18:05.401Z,991.44
2022-08-23T03:19:05.451Z,991.46
2022-08-23T03:20:05.351Z,991.47
2022-08-23T03:21:05.373Z,991.50
2022-08-23T03:22:05.360Z,991.48
2022-08-23T03:23:05.340Z,991.50
2022-08-23T03:24:09.969Z,991.51
2022-08-23T03:25:06.325Z,991.45
2022-08-23T03:26:05.380Z,991.50
2022-08-23T03:27:05.270Z,991.44
2022-08-23T03:28:05.311Z,991.41
2022-08-23T03:29:05.290Z,991.43
2022-08-23T03:30:05.241Z,991.44
2022-08-23T03:31:05.234Z,991.47
2022-08-23T03:32:05.265Z,991.50
2022-08-23T03:33:05.248Z,991.50
2022-08-23T03:34:05.214Z,991.54
2022-08-23T03:35:05.258Z,991.47
2022-08-23T03:36:06.192Z,991.45
2022-08-23T03:37:05.174Z,991.45
2022-08-23T03:38:05.172Z,991.51
2022-08-23T03:39:05.332Z,991.46
2022-08-23T03:40:05.205Z,991.47
2022-08-23T03:41:05.132Z,991.55
2022-08-23T03:42:05.112Z,991.54
2022-08-23T03:43:05.111Z,991.51
2022-08-23T03:44:05.131Z,991.57
2022-08-23T03:45:05.115Z,991.50
2022-08-23T03:46:05.086Z,991.51
2022-08-23T03:47:05.074Z,991.54
2022-08-23T03:48:05.064Z,991.52
2022-08-23T03:49:05.044Z,991.48
2022-08-23T03:50:05.574Z,991.51
2022-08-23T03:51:05.024Z,991.52
2022-08-23T03:52:05.016Z,991.51
2022-08-23T03:53:04.997Z,991.50
2022-08-23T03:54:05.005Z,991.46
2022-08-23T03:55:05.010Z,991.52
2022-08-23T03:56:15.924Z,991.54
2022-08-23T03:57:04.964Z,991.54
2022-08-23T03:58:04.944Z,991.60
2022-08-23T03:59:04.966Z,991.50
2022-08-23T04:00:04.974Z,991.56
2022-08-23T04:01:04.919Z,991.48
2022-08-23T04:02:04.947Z,991.49
2022-08-23T04:03:04.913Z,991.53
2022-08-23T04:04:04.899Z,991.53
2022-08-23T04:05:04.874Z,991.52
2022-08-23T04:06:04.884Z,991.50
2022-08-23T04:07:04.804Z,991.54
2022-08-23T04:08:04.795Z,991.55
2022-08-23T04:09:04.776Z,991.55
2022-08-23T04:10:04.824Z,991.57
2022-08-23T04:11:05.775Z,991.57
2022-08-23T04:12:04.847Z,991.60
2022-08-23T04:13:05.827Z,991.67
2022-08-23T04:14:04.798Z,991.64
2022-08-23T04:15:04.769Z,991.63
2022-08-23T04:16:04.780Z,991.66
2022-08-23T04:17:04.766Z,991.63
2022-08-23T04:18:04.787Z,991.65
2022-08-23T04:19:04.666Z,991.62
2022-08-23T04:20:04.676Z,991.69
2022-08-23T04:21:04.716Z,991.70
2022-08-23T04:22:04.716Z,991.69
2022-08-23T04:23:04.685Z,991.70
2022-08-23T04:24:04.926Z,991.70
2022-08-23T04:25:04.636Z,991.71
2022-08-23T04:26:05.655Z,991.73
2022-08-23T04:27:04.607Z,991.70
2022-08-23T04:28:04.648Z,991.76
2022-08-23T04:29:04.629Z,991.77
2022-08-23T04:30:04.578Z,991.78
2022-08-23T04:31:04.560Z,991.78
2022-08-23T04:32:05.429Z,991.74
2022-08-23T04:33:11.298Z,991.73
2022-08-23T04:34:05.931Z,991.74
2022-08-23T04:35:04.527Z,991.73
2022-08-23T04:36:04.527Z,991.74
2022-08-23T04:37:04.487Z,991.74
2022-08-23T04:38:04.479Z,991.76
2022-08-23T04:39:05.468Z,991.76
2022-08-23T04:40:04.565Z,991.79
2022-08-23T04:41:04.501Z,991.78
2022-08-23T04:42:05.446Z,991.76
2022-08-23T04:43:04.449Z,991.79
2022-08-23T04:44:04.441Z,991.79
2022-08-23T04:45:04.451Z,991.75
2022-08-23T04:46:04.431Z,991.76
2022-08-23T04:47:04.420Z,991.75
2022-08-23T04:48:04.405Z,991.76
2022-08-23T04:49:04.380Z,991.81
2022-08-23T04:50:04.411Z,991.75
2022-08-23T04:51:05.869Z,991.80
2022-08-23T04:52:04.361Z,991.80
2022-08-23T04:53:04.339Z,991.80
2022-08-23T04:54:04.310Z,991.81
2022-08-23T04:55:04.342Z,991.82
2022-08-23T04:56:04.411Z,991.87
2022-08-23T04:57:04.309Z,991.86
2022-08-23T04:58:04.271Z,991.86
2022-08-23T04:59:04.285Z,991.90
2022-08-23T05:00:04.263Z,991.87
2022-08-23T05:01:04.279Z,991.86
2022-08-23T05:02:04.285Z,991.91
2022-08-23T05:03:05.179Z,991.91
2022-08-23T05:04:04.231Z,991.89
2022-08-23T05:05:04.221Z,991.89
2022-08-23T05:06:04.201Z,991.90
2022-08-23T05:07:04.201Z,991.85
2022-08-23T05:08:04.170Z,991.87
2022-08-23T05:09:04.401Z,991.91
2022-08-23T05:10:05.131Z,991.89
2022-08-23T05:11:04.150Z,991.92
2022-08-23T05:12:04.231Z,991.93
2022-08-23T05:13:04.117Z,991.96
2022-08-23T05:14:04.133Z,991.99
2022-08-23T05:15:04.146Z,991.98
2022-08-23T05:16:04.103Z,992.01
2022-08-23T05:17:04.088Z,991.97
2022-08-23T05:18:04.082Z,991.97
2022-08-23T05:19:04.075Z,991.96
2022-08-23T05:20:04.053Z,991.96
2022-08-23T05:21:04.033Z,992.00
2022-08-23T05:22:04.033Z,992.00
2022-08-23T05:23:04.050Z,992.05
2022-08-23T05:24:04.024Z,992.00
2022-08-23T05:25:06.363Z,992.06
2022-08-23T05:26:04.035Z,992.01
2022-08-23T05:27:03.991Z,992.08
2022-08-23T05:28:03.982Z,992.07
2022-08-23T05:29:03.962Z,992.10
2022-08-23T05:30:03.955Z,992.15
2022-08-23T05:31:04.013Z,992.13
2022-08-23T05:32:03.932Z,992.13
2022-08-23T05:33:03.922Z,992.03
2022-08-23T05:34:03.906Z,992.16
2022-08-23T05:35:03.914Z,992.14
2022-08-23T05:36:03.904Z,992.14
2022-08-23T05:37:03.904Z,992.17
2022-08-23T05:38:03.864Z,992.17
2022-08-23T05:39:03.877Z,992.19
2022-08-23T05:40:03.877Z,992.23
2022-08-23T05:41:05.108Z,992.29
2022-08-23T05:42:03.824Z,992.27
2022-08-23T05:43:03.831Z,992.24
2022-08-23T05:44:03.813Z,992.27
2022-08-23T05:45:06.038Z,992.27
2022-08-23T05:46:03.844Z,992.31
2022-08-23T05:47:03.785Z,992.25
2022-08-23T05:48:05.725Z,992.23
2022-08-23T05:49:03.756Z,992.24
2022-08-23T05:50:03.736Z,992.32
2022-08-23T05:51:03.787Z,992.33
2022-08-23T05:52:03.760Z,992.33
2022-08-23T05:53:03.730Z,992.35
2022-08-23T05:54:03.696Z,992.42
2022-08-23T05:55:03.705Z,992.40
2022-08-23T05:56:03.807Z,992.42
2022-08-23T05:57:03.675Z,992.46
2022-08-23T05:58:03.655Z,992.50
2022-08-23T05:59:03.662Z,992.45
2022-08-23T06:00:03.645Z,992.43
2022-08-23T06:01:03.693Z,992.51
2022-08-23T06:02:03.682Z,992.43
2022-08-23T06:03:03.628Z,992.44
2022-08-23T06:04:03.607Z,992.41
2022-08-23T06:05:03.666Z,992.40
2022-08-23T06:06:03.597Z,992.41
2022-08-23T06:07:03.599Z,992.42
2022-08-23T06:08:03.546Z,992.44
2022-08-23T06:09:03.576Z,992.44
2022-08-23T06:10:03.565Z,992.45
2022-08-23T06:11:03.568Z,992.45
2022-08-23T06:12:03.527Z,992.50
2022-08-23T06:13:03.513Z,992.48
2022-08-23T06:14:03.533Z,992.49
2022-08-23T06:15:03.481Z,992.50
2022-08-23T06:16:14.651Z,992.46
2022-08-23T06:17:04.527Z,992.53
2022-08-23T06:18:03.449Z,992.47
2022-08-23T06:19:04.417Z,992.52
2022-08-23T06:20:03.483Z,992.52
2022-08-23T06:21:03.425Z,992.46
2022-08-23T06:22:03.416Z,992.48
2022-08-23T06:23:03.437Z,992.48
2022-08-23T06:24:03.371Z,992.46
2022-08-23T06:25:04.868Z,992.44
2022-08-23T06:26:08.138Z,992.46
2022-08-23T06:27:03.368Z,992.45
2022-08-23T06:28:03.368Z,992.49
2022-08-23T06:29:03.560Z,992.47
2022-08-23T06:30:03.350Z,992.48
2022-08-23T06:31:03.359Z,992.47
2022-08-23T06:32:03.321Z,992.46
2022-08-23T06:33:03.313Z,992.44
2022-08-23T06:34:03.376Z,992.44
2022-08-23T06:35:18.133Z,992.45
2022-08-23T06:36:04.288Z,992.52
2022-08-23T06:37:03.278Z,992.49
2022-08-23T06:38:03.238Z,992.49
2022-08-23T06:39:03.245Z,992.54
2022-08-23T06:40:03.287Z,992.54
2022-08-23T06:41:03.228Z,992.56
2022-08-23T06:42:10.099Z,992.57
2022-08-23T06:43:04.190Z,992.56
2022-08-23T06:44:03.192Z,992.54
2022-08-23T06:45:03.180Z,992.53
2022-08-23T06:46:03.171Z,992.59
2022-08-23T06:47:03.214Z,992.61
2022-08-23T06:48:03.402Z,992.58
2022-08-23T06:49:03.420Z,992.62
2022-08-23T06:50:03.155Z,992.60
2022-08-23T06:51:03.111Z,992.57
2022-08-23T06:52:03.099Z,992.53
2022-08-23T06:53:07.086Z,992.55
2022-08-23T06:54:03.750Z,992.52
2022-08-23T06:55:03.174Z,992.52
2022-08-23T06:56:03.076Z,992.53
2022-08-23T06:57:03.086Z,992.52
2022-08-23T06:58:03.044Z,992.49
2022-08-23T06:59:03.055Z,992.44
2022-08-23T07:00:03.021Z,992.51
2022-08-23T07:01:04.783Z,992.41
2022-08-23T07:02:03.097Z,992.46
2022-08-23T07:03:03.242Z,992.46
2022-08-23T07:04:02.979Z,992.45
2022-08-23T07:05:02.982Z,992.40
2022-08-23T07:06:02.964Z,992.42
2022-08-23T07:07:03.005Z,992.44
2022-08-23T07:08:02.931Z,992.46
2022-08-23T07:09:02.940Z,992.44
2022-08-23T07:10:02.923Z,992.45
2022-08-23T07:11:02.932Z,992.42
2022-08-23T07:12:02.946Z,992.43
2022-08-23T07:13:02.883Z,992.47
2022-08-23T07:14:02.893Z,992.46
2022-08-23T07:15:08.087Z,992.44
2022-08-23T07:16:02.913Z,992.44
2022-08-23T07:17:02.872Z,992.42
2022-08-23T07:18:02.841Z,992.41
2022-08-23T07:19:02.976Z,992.37
2022-08-23T07:20:02.852Z,992.36
2022-08-23T07:21:02.803Z,992.38
2022-08-23T07:22:02.782Z,992.35
2022-08-23T07:23:02.936Z,992.38
2022-08-23T07:24:02.813Z,992.41
2022-08-23T07:25:02.768Z,992.44
2022-08-23T07:26:02.833Z,992.43
2022-08-23T07:27:02.761Z,992.47
2022-08-23T07:28:02.871Z,992.42
2022-08-23T07:29:02.776Z,992.50
2022-08-23T07:30:02.723Z,992.51
2022-08-23T07:31:02.712Z,992.49
2022-08-23T07:32:02.826Z,992.50
2022-08-23T07:33:02.748Z,992.53
2022-08-23T07:34:02.692Z,992.53
2022-08-23T07:35:02.699Z,992.52
2022-08-23T07:36:03.377Z,992.55
2022-08-23T07:37:04.577Z,992.57
2022-08-23T07:38:04.593Z,992.56
2022-08-23T07:39:02.637Z,992.55
2022-08-23T07:40:02.673Z,992.53
2022-08-23T07:41:02.607Z,992.55
2022-08-23T07:42:02.610Z,992.56
2022-08-23T07:43:03.626Z,992.57
2022-08-23T07:44:02.834Z,992.58
2022-08-23T07:45:02.582Z,992.62
2022-08-23T07:46:04.235Z,992.59
2022-08-23T07:47:02.593Z,992.57
2022-08-23T07:48:02.757Z,992.57
2022-08-23T07:49:02.529Z,992.61
2022-08-23T07:50:02.514Z,992.58
2022-08-23T07:51:02.495Z,992.60
2022-08-23T07:52:02.484Z,992.59
2022-08-23T07:53:02.493Z,992.57
2022-08-23T07:54:02.503Z,992.55
2022-08-23T07:55:02.517Z,992.58
2022-08-23T07:56:07.234Z,992.56
2022-08-23T07:57:02.438Z,992.56
2022-08-23T07:58:02.611Z,992.56
2022-08-23T07:59:02.508Z,992.49
2022-08-23T08:00:02.407Z,992.51
2022-08-23T08:01:02.405Z,992.49
2022-08-23T08:02:02.465Z,992.48
2022-08-23T08:03:02.439Z,992.49
2022-08-23T08:04:02.381Z,992.52
2022-08-23T08:05:02.354Z,992.50
2022-08-23T08:06:02.335Z,992.52
2022-08-23T08:07:59.170Z,992.54
2022-08-23T08:08:59.023Z,992.55
2022-08-23T08:09:59.173Z,992.61
2022-08-23T08:10:58.992Z,992.61
2022-08-23T08:11:58.983Z,992.59
2022-08-23T08:12:59.002Z,992.60
2022-08-23T08:13:58.960Z,992.54
2022-08-23T08:14:59.005Z,992.57
2022-08-23T08:15:58.996Z,992.56
2022-08-23T08:16:58.943Z,992.56
2022-08-23T08:17:58.928Z,992.59
2022-08-23T08:18:58.923Z,992.59
2022-08-23T08:19:58.905Z,992.54
2022-08-23T08:20:58.917Z,992.52
2022-08-23T08:21:58.904Z,992.55
2022-08-23T08:23:00.419Z,992.54
2022-08-23T08:23:58.865Z,992.55
2022-08-23T08:24:58.875Z,992.55
2022-08-23T08:25:58.862Z,992.49
2022-08-23T08:26:58.861Z,992.55
2022-08-23T08:27:58.870Z,992.54
2022-08-23T08:28:58.814Z,992.56
2022-08-23T08:29:58.812Z,992.52
2022-08-23T08:30:58.814Z,992.56
2022-08-23T08:31:58.793Z,992.58
2022-08-23T08:32:58.840Z,992.54
2022-08-23T08:33:58.766Z,992.60
2022-08-23T08:34:58.795Z,992.58
2022-08-23T08:35:59.966Z,992.59
2022-08-23T08:36:59.431Z,992.57
2022-08-23T08:37:58.747Z,992.59
2022-08-23T08:39:00.744Z,992.62
2022-08-23T08:39:58.726Z,992.60
2022-08-23T08:40:58.736Z,992.60
2022-08-23T08:42:04.334Z,992.59
2022-08-23T08:42:59.761Z,992.62
2022-08-23T08:43:58.664Z,992.64
2022-08-23T08:44:58.644Z,992.62
2022-08-23T08:45:59.208Z,992.63
2022-08-23T08:46:59.265Z,992.62
2022-08-23T08:47:58.616Z,992.63
2022-08-23T08:48:58.624Z,992.63
2022-08-23T08:49:58.594Z,992.62
2022-08-23T08:50:58.587Z,992.66
2022-08-23T08:51:58.580Z,992.64
2022-08-23T08:52:58.597Z,992.70
2022-08-23T08:53:58.607Z,992.66
2022-08-23T08:54:58.546Z,992.68
2022-08-23T08:55:58.547Z,992.70
2022-08-23T08:56:58.537Z,992.69
2022-08-23T08:57:58.569Z,992.63
2022-08-23T08:58:58.515Z,992.64
2022-08-23T08:59:58.495Z,992.64
2022-08-23T09:00:58.496Z,992.65
2022-08-23T09:01:58.542Z,992.62
2022-08-23T09:02:58.529Z,992.62
2022-08-23T09:03:58.518Z,992.66
2022-08-23T09:04:58.493Z,992.62
2022-08-23T09:05:58.436Z,992.64
2022-08-23T09:06:59.011Z,992.69
2022-08-23T09:07:58.406Z,992.56
2022-08-23T09:08:58.406Z,992.60
2022-08-23T09:09:58.397Z,992.55
2022-08-23T09:10:58.397Z,992.56
2022-08-23T09:11:58.357Z,992.57
2022-08-23T09:12:58.386Z,992.61
2022-08-23T09:13:58.348Z,992.57
2022-08-23T09:14:58.383Z,992.59
2022-08-23T09:15:58.395Z,992.56
2022-08-23T09:16:58.331Z,992.53
2022-08-23T09:17:58.458Z,992.52
2022-08-23T09:18:58.310Z,992.55
2022-08-23T09:19:58.337Z,992.48
2022-08-23T09:20:58.278Z,992.48
2022-08-23T09:21:58.408Z,992.49
2022-08-23T09:22:58.267Z,992.47
2022-08-23T09:24:00.924Z,992.49
2022-08-23T09:24:58.237Z,992.42
2022-08-23T09:26:03.041Z,992.43
2022-08-23T09:26:59.257Z,992.45
2022-08-23T09:27:58.284Z,992.49
2022-08-23T09:28:58.217Z,992.46
2022-08-23T09:29:58.187Z,992.51
2022-08-23T09:30:58.232Z,992.49
2022-08-23T09:31:58.272Z,992.46
2022-08-23T09:32:58.185Z,992.50
2022-08-23T09:33:58.141Z,992.44
2022-08-23T09:34:58.150Z,992.47
2022-08-23T09:35:58.140Z,992.47
2022-08-23T09:36:58.110Z,992.47
2022-08-23T09:37:58.196Z,992.49
2022-08-23T09:38:58.107Z,992.47
2022-08-23T09:39:58.126Z,992.46
2022-08-23T09:40:58.119Z,992.43
2022-08-23T09:41:58.059Z,992.42
2022-08-23T09:42:58.038Z,992.46
2022-08-23T09:43:58.038Z,992.49
2022-08-23T09:44:58.029Z,992.39
2022-08-23T09:45:58.059Z,992.43
2022-08-23T09:46:58.021Z,992.40
2022-08-23T09:47:58.044Z,992.34
2022-08-23T09:48:57.993Z,992.37
2022-08-23T09:49:57.991Z,992.37
2022-08-23T09:50:57.972Z,992.33
2022-08-23T09:51:58.110Z,992.31
2022-08-23T09:52:58.009Z,992.31
2022-08-23T09:53:57.930Z,992.29
2022-08-23T09:54:57.938Z,992.33
2022-08-23T09:55:57.909Z,992.32
2022-08-23T09:57:00.550Z,992.30
2022-08-23T09:57:57.898Z,992.36
2022-08-23T09:58:57.880Z,992.36
2022-08-23T09:59:57.869Z,992.29
2022-08-23T10:00:57.861Z,992.28
2022-08-23T10:01:58.009Z,992.28
2022-08-23T10:02:57.929Z,992.34
2022-08-23T10:03:57.833Z,992.27
2022-08-23T10:04:57.884Z,992.26
2022-08-23T10:05:57.821Z,992.27
2022-08-23T10:06:57.845Z,992.25
2022-08-23T10:07:57.781Z,992.27
2022-08-23T10:08:57.772Z,992.24
2022-08-23T10:09:57.764Z,992.23
2022-08-23T10:10:57.763Z,992.23
2022-08-23T10:11:57.743Z,992.17
2022-08-23T10:12:57.886Z,992.21
2022-08-23T10:13:57.753Z,992.16
2022-08-23T10:14:57.723Z,992.12
2022-08-23T10:15:57.761Z,992.15
2022-08-23T10:16:57.694Z,992.20
2022-08-23T10:17:57.702Z,992.19
2022-08-23T10:18:57.682Z,992.17
2022-08-23T10:19:57.652Z,992.15
2022-08-23T10:20:57.642Z,992.12
2022-08-23T10:21:57.632Z,992.14
2022-08-23T10:22:57.630Z,992.15
2022-08-23T10:23:57.623Z,992.13
2022-08-23T10:24:57.613Z,992.13
2022-08-23T10:26:02.406Z,992.13
2022-08-23T10:26:57.594Z,992.11
2022-08-23T10:27:58.066Z,992.15
2022-08-23T10:28:57.614Z,992.11
2022-08-23T10:29:57.554Z,992.09
2022-08-23T10:30:57.633Z,992.10
2022-08-23T10:31:59.302Z,992.17
2022-08-23T10:32:57.565Z,992.10
2022-08-23T10:33:57.514Z,992.06
2022-08-23T10:34:57.493Z,992.04
2022-08-23T10:35:57.486Z,992.02
2022-08-23T10:36:57.524Z,992.11
2022-08-23T10:37:57.526Z,992.02
2022-08-23T10:38:57.505Z,992.05
2022-08-23T10:40:01.659Z,992.00
2022-08-23T10:40:58.444Z,992.05
2022-08-23T10:41:57.444Z,992.05
2022-08-23T10:42:57.436Z,992.05
2022-08-23T10:43:57.425Z,992.03
2022-08-23T10:44:57.447Z,992.04
2022-08-23T10:46:00.326Z,991.99
2022-08-23T10:46:57.400Z,991.95
2022-08-23T10:47:57.382Z,991.92
2022-08-23T10:48:57.374Z,991.99
2022-08-23T10:49:57.345Z,991.92
2022-08-23T10:50:57.334Z,991.89
2022-08-23T10:51:57.317Z,991.93
2022-08-23T10:52:57.315Z,991.91
2022-08-23T10:53:57.435Z,991.90
2022-08-23T10:54:57.316Z,991.90
2022-08-23T10:55:57.325Z,991.85
2022-08-23T10:56:57.275Z,991.86
2022-08-23T10:57:57.329Z,991.83
2022-08-23T10:58:57.277Z,991.81
2022-08-23T10:59:57.278Z,991.84
2022-08-23T11:00:57.238Z,991.83
2022-08-23T11:01:57.344Z,991.90
2022-08-23T11:02:57.265Z,991.84
2022-08-23T11:03:57.238Z,991.89
2022-08-23T11:04:57.240Z,991.85
2022-08-23T11:05:57.178Z,991.85
2022-08-23T11:06:57.166Z,991.84
2022-08-23T11:07:57.148Z,991.83
2022-08-23T11:08:57.148Z,991.82
2022-08-23T11:09:57.146Z,991.84
2022-08-23T11:10:57.198Z,991.82
2022-08-23T11:11:57.118Z,991.73
2022-08-23T11:12:57.137Z,991.72
2022-08-23T11:13:57.099Z,991.71
2022-08-23T11:14:57.511Z,991.74
2022-08-23T11:15:57.142Z,991.69
2022-08-23T11:16:57.076Z,991.69
2022-08-23T11:17:57.105Z,991.62
2022-08-23T11:18:57.050Z,991.63
2022-08-23T11:19:57.209Z,991.64
2022-08-23T11:20:57.028Z,991.62
2022-08-23T11:21:57.008Z,991.60
2022-08-23T11:22:57.007Z,991.60
2022-08-23T11:23:56.988Z,991.58
2022-08-23T11:24:57.467Z,991.61
2022-08-23T11:25:56.998Z,991.57
2022-08-23T11:26:56.989Z,991.60
2022-08-23T11:27:56.948Z,991.56
2022-08-23T11:28:56.938Z,991.54
2022-08-23T11:29:56.958Z,991.54
2022-08-23T11:30:56.973Z,991.53
2022-08-23T11:31:56.910Z,991.54
2022-08-23T11:32:56.900Z,991.52
2022-08-23T11:33:56.900Z,991.49
2022-08-23T11:34:56.883Z,991.53
2022-08-23T11:35:56.960Z,991.46
2022-08-23T11:36:56.872Z,991.50
2022-08-23T11:37:56.953Z,991.50
2022-08-23T11:38:57.787Z,991.48
2022-08-23T11:39:56.859Z,991.52
2022-08-23T11:40:56.819Z,991.53
2022-08-23T11:41:56.859Z,991.46
2022-08-23T11:42:56.812Z,991.45
2022-08-23T11:43:56.782Z,991.49
2022-08-23T11:44:56.769Z,991.51
2022-08-23T11:45:56.800Z,991.48
2022-08-23T11:46:56.777Z,991.50
2022-08-23T11:47:56.771Z,991.49
2022-08-23T11:48:56.750Z,991.46
2022-08-23T11:49:56.747Z,991.48
2022-08-23T11:50:58.238Z,991.49
2022-08-23T11:51:56.741Z,991.42
2022-08-23T11:52:56.724Z,991.44
2022-08-23T11:53:56.680Z,991.44
2022-08-23T11:54:56.678Z,991.35
2022-08-23T11:55:56.741Z,991.37
2022-08-23T11:56:56.641Z,991.35
2022-08-23T11:57:56.793Z,991.34
2022-08-23T11:58:56.698Z,991.36
2022-08-23T11:59:56.621Z,991.33
2022-08-23T12:00:56.610Z,991.31
2022-08-23T12:01:56.613Z,991.27
2022-08-23T12:02:56.726Z,991.32
2022-08-23T12:03:56.715Z,991.29
2022-08-23T12:04:56.574Z,991.25
2022-08-23T12:05:56.563Z,991.25
2022-08-23T12:06:56.555Z,991.27
2022-08-23T12:07:56.574Z,991.30
2022-08-23T12:08:56.534Z,991.27
2022-08-23T12:09:56.543Z,991.30
2022-08-23T12:10:56.512Z,991.32
2022-08-23T12:11:56.530Z,991.32
2022-08-23T12:12:57.033Z,991.29
2022-08-23T12:13:56.514Z,991.32
2022-08-23T12:14:56.464Z,991.25
2022-08-23T12:15:56.522Z,991.26
2022-08-23T12:16:56.807Z,991.29
2022-08-23T12:17:56.447Z,991.26
2022-08-23T12:18:56.443Z,991.26
2022-08-23T12:19:56.473Z,991.22
2022-08-23T12:20:56.411Z,991.27
2022-08-23T12:21:56.395Z,991.23
2022-08-23T12:22:56.385Z,991.23
2022-08-23T12:23:56.382Z,991.24
2022-08-23T12:24:57.502Z,991.23
2022-08-23T12:25:56.407Z,991.28
2022-08-23T12:26:56.368Z,991.28
2022-08-23T12:27:56.356Z,991.29
2022-08-23T12:28:56.342Z,991.21
2022-08-23T12:29:56.323Z,991.20